createdAt,value
2023-02-17T00:01:14.483Z,62.90
2023-02-17T00:03:48.393Z,70.00
2023-02-17T00:06:22.224Z,78.50
2023-02-17T00:08:54.884Z,53.20
2023-02-17T00:11:28.502Z,51.70
2023-02-17T00:14:01.051Z,60.90
2023-02-17T00:16:33.204Z,57.00
2023-02-17T00:19:25.040Z,67.40
2023-02-17T00:21:59.660Z,55.40
2023-02-17T00:24:33.788Z,50.40
2023-02-17T00:27:06.119Z,78.20
2023-02-17T00:29:38.627Z,56.70
2023-02-17T00:32:11.565Z,87.40
2023-02-17T00:34:44.089Z,50.70
2023-02-17T00:37:16.337Z,54.20
2023-02-17T00:39:48.539Z,47.70
2023-02-17T00:42:24.255Z,50.30
2023-02-17T00:45:11.432Z,49.80
2023-02-17T00:47:43.543Z,45.10
2023-02-17T00:50:15.828Z,44.90
2023-02-17T00:52:48.161Z,46.90
2023-02-17T00:55:20.577Z,50.00
2023-02-17T00:57:53.799Z,46.90
2023-02-17T01:00:26.456Z,56.00
2023-02-17T01:02:58.665Z,52.40
2023-02-17T01:05:31.116Z,48.90
2023-02-17T01:08:03.399Z,50.40
2023-02-17T01:10:37.310Z,57.20
2023-02-17T01:13:10.536Z,51.90
2023-02-17T01:15:44.031Z,51.60
2023-02-17T01:18:20.089Z,45.50
2023-02-17T01:20:52.721Z,45.00
2023-02-17T01:23:25.303Z,49.20
2023-02-17T01:25:59.151Z,96.30
2023-02-17T01:28:32.523Z,54.80
2023-02-17T01:31:09.932Z,62.20
2023-02-17T01:33:43.437Z,54.40
2023-02-17T01:36:20.239Z,49.50
2023-02-17T01:38:52.914Z,57.70
2023-02-17T01:41:27.835Z,56.90
2023-02-17T01:46:44.889Z,47.70
2023-02-17T01:49:25.138Z,46.10
2023-02-17T01:52:03.282Z,46.30
2023-02-17T01:54:42.533Z,43.50
2023-02-17T01:57:18.005Z,44.30
2023-02-17T01:59:51.859Z,45.60
2023-02-17T02:02:24.838Z,48.30
2023-02-17T02:04:57.141Z,46.40
2023-02-17T02:07:33.051Z,46.00
2023-02-17T02:10:06.221Z,49.20
2023-02-17T02:12:42.563Z,47.60
2023-02-17T02:15:17.981Z,51.20
2023-02-17T02:18:04.618Z,45.20
2023-02-17T02:21:04.432Z,45.40
2023-02-17T02:24:00.175Z,44.80
2023-02-17T02:29:57.343Z,50.00
2023-02-17T02:32:46.006Z,44.40
2023-02-17T02:35:22.097Z,55.60
2023-02-17T02:38:00.481Z,53.80
2023-02-17T02:40:37.924Z,49.00
2023-02-17T02:43:10.717Z,51.40
2023-02-17T02:45:42.978Z,54.90
2023-02-17T02:48:15.229Z,76.90
2023-02-17T02:51:02.851Z,47.20
2023-02-17T02:54:01.037Z,41.50
2023-02-17T02:56:48.149Z,43.70
2023-02-17T02:59:34.891Z,41.40
2023-02-17T03:02:14.401Z,42.70
2023-02-17T03:04:52.406Z,43.30
2023-02-17T03:07:29.644Z,45.60
2023-02-17T03:10:02.921Z,42.30
2023-02-17T03:12:37.440Z,45.00
2023-02-17T03:15:16.874Z,46.20
2023-02-17T03:17:49.257Z,45.20
2023-02-17T03:20:22.059Z,43.40
2023-02-17T03:22:54.854Z,41.40
2023-02-17T03:25:27.240Z,40.90
2023-02-17T03:27:59.685Z,44.80
2023-02-17T03:30:32.230Z,43.90
2023-02-17T03:33:04.617Z,45.50
2023-02-17T03:35:36.829Z,44.40
2023-02-17T03:38:08.973Z,39.40
2023-02-17T03:40:41.295Z,40.80
2023-02-17T03:43:13.514Z,38.90
2023-02-17T03:45:45.852Z,42.60
2023-02-17T03:48:18.081Z,62.90
2023-02-17T03:50:50.413Z,54.70
2023-02-17T03:53:22.678Z,38.60
2023-02-17T03:55:55.000Z,38.10
2023-02-17T03:58:27.215Z,36.60
2023-02-17T04:00:59.538Z,39.10
2023-02-17T04:03:32.086Z,36.50
2023-02-17T04:06:05.034Z,38.60
2023-02-17T04:08:37.810Z,37.60
2023-02-17T04:11:11.609Z,43.00
2023-02-17T04:13:43.753Z,41.40
2023-02-17T04:16:16.081Z,38.60
2023-02-17T04:18:48.293Z,41.60
2023-02-17T04:21:20.672Z,38.80
2023-02-17T04:23:54.628Z,39.80
2023-02-17T04:26:26.948Z,41.10
2023-02-17T04:28:59.450Z,45.40
2023-02-17T04:31:31.819Z,36.20
2023-02-17T04:34:04.170Z,37.20
2023-02-17T04:36:36.960Z,37.10
2023-02-17T04:39:09.171Z,34.70
2023-02-17T04:41:41.346Z,35.70
2023-02-17T04:44:13.610Z,38.00
2023-02-17T04:46:45.828Z,41.10
2023-02-17T04:49:18.021Z,37.40
2023-02-17T04:51:50.346Z,38.70
2023-02-17T04:54:23.488Z,39.90
2023-02-17T04:56:55.683Z,38.50
2023-02-17T04:59:28.033Z,37.20
2023-02-17T05:02:00.220Z,37.30
2023-02-17T05:04:32.536Z,42.80
2023-02-17T05:07:04.839Z,39.00
2023-02-17T05:09:37.263Z,43.00
2023-02-17T05:12:09.869Z,38.70
2023-02-17T05:14:42.144Z,38.80
2023-02-17T05:17:14.282Z,37.30
2023-02-17T05:19:46.507Z,38.70
2023-02-17T05:22:18.901Z,46.10
2023-02-17T05:24:51.144Z,39.20
2023-02-17T05:27:23.745Z,37.70
2023-02-17T05:29:55.995Z,49.80
2023-02-17T05:32:28.341Z,38.20
2023-02-17T05:35:00.509Z,39.90
2023-02-17T05:37:32.676Z,39.90
2023-02-17T05:40:05.485Z,40.30
2023-02-17T05:42:37.683Z,41.60
2023-02-17T05:45:12.460Z,50.70
2023-02-17T05:47:44.581Z,40.60
2023-02-17T05:50:17.064Z,40.20
2023-02-17T05:52:49.323Z,41.40
2023-02-17T05:55:22.311Z,42.50
2023-02-17T05:57:54.496Z,45.10
2023-02-17T06:00:27.411Z,36.40
2023-02-17T06:02:59.895Z,41.90
2023-02-17T06:05:32.368Z,42.90
2023-02-17T06:08:04.716Z,42.60
2023-02-17T06:10:36.897Z,49.60
2023-02-17T06:13:09.323Z,48.60
2023-02-17T06:15:41.888Z,45.50
2023-02-17T06:18:14.106Z,45.20
2023-02-17T06:20:46.405Z,50.90
2023-02-17T06:23:18.630Z,40.40
2023-02-17T06:25:50.842Z,42.20
2023-02-17T06:28:23.063Z,43.70
2023-02-17T06:30:55.365Z,40.00
2023-02-17T06:33:27.884Z,43.90
2023-02-17T06:36:00.106Z,40.50
2023-02-17T06:38:32.345Z,43.10
2023-02-17T06:41:04.669Z,45.70
2023-02-17T06:43:36.894Z,47.90
2023-02-17T06:46:09.688Z,69.40
2023-02-17T06:48:42.118Z,60.80
2023-02-17T06:51:14.413Z,62.50
2023-02-17T06:53:47.079Z,53.20
2023-02-17T06:56:21.097Z,54.40
2023-02-17T06:58:54.019Z,50.40
2023-02-17T07:01:27.569Z,60.90
2023-02-17T07:04:00.135Z,54.60
2023-02-17T07:06:32.392Z,65.70
2023-02-17T07:09:05.286Z,65.30
2023-02-17T07:11:37.534Z,78.30
2023-02-17T07:14:09.863Z,46.50
2023-02-17T07:16:42.062Z,52.40
2023-02-17T07:19:14.464Z,47.40
2023-02-17T07:21:47.246Z,49.10
2023-02-17T07:24:19.544Z,49.50
2023-02-17T07:26:53.860Z,43.20
2023-02-17T07:29:26.088Z,40.50
2023-02-17T07:31:58.303Z,43.10
2023-02-17T07:34:30.585Z,38.90
2023-02-17T07:37:02.841Z,33.70
2023-02-17T07:39:35.289Z,37.20
2023-02-17T07:42:07.567Z,34.40
2023-02-17T07:44:39.854Z,39.50
2023-02-17T07:47:11.957Z,73.30
2023-02-17T07:49:44.271Z,78.20
2023-02-17T07:52:19.674Z,53.20
2023-02-17T07:54:51.824Z,45.80
2023-02-17T07:57:23.996Z,41.30
2023-02-17T07:59:56.295Z,42.70
2023-02-17T08:02:28.512Z,34.20
2023-02-17T08:05:01.736Z,38.80
2023-02-17T08:07:34.076Z,39.80
2023-02-17T08:10:24.985Z,44.60
2023-02-17T08:13:15.303Z,36.80
2023-02-17T08:15:47.456Z,36.70
2023-02-17T08:18:19.667Z,40.40
2023-02-17T08:20:52.499Z,33.60
2023-02-17T08:23:24.779Z,33.20
2023-02-17T08:25:59.872Z,33.80
2023-02-17T08:28:32.808Z,44.10
2023-02-17T08:31:05.286Z,36.70
2023-02-17T08:33:37.541Z,35.10
2023-02-17T08:36:11.632Z,35.50
2023-02-17T08:38:48.635Z,37.10
2023-02-17T08:41:24.496Z,35.60
2023-02-17T08:43:57.020Z,42.40
2023-02-17T08:46:30.234Z,36.30
2023-02-17T08:49:02.762Z,37.60
2023-02-17T08:51:35.108Z,33.80
2023-02-17T08:54:10.428Z,37.70
2023-02-17T08:56:43.567Z,36.90
2023-02-17T08:59:18.035Z,39.60
2023-02-17T09:01:50.950Z,35.00
2023-02-17T09:04:23.327Z,36.50
2023-02-17T09:06:58.551Z,37.60
2023-02-17T09:09:32.677Z,39.70
2023-02-17T09:12:05.412Z,36.50
2023-02-17T09:14:37.831Z,36.00
2023-02-17T09:17:11.282Z,42.20
2023-02-17T09:19:43.806Z,42.60
2023-02-17T09:22:30.825Z,35.60
2023-02-17T09:25:04.127Z,49.00
2023-02-17T09:27:36.654Z,52.60
2023-02-17T09:30:11.412Z,35.10
2023-02-17T09:32:45.209Z,42.90
2023-02-17T09:35:19.307Z,40.90
2023-02-17T09:37:52.016Z,47.90
2023-02-17T09:40:29.469Z,45.10
2023-02-17T09:43:02.699Z,38.00
2023-02-17T09:45:37.530Z,42.20
2023-02-17T09:48:13.266Z,37.10
2023-02-17T09:50:51.996Z,47.00
2023-02-17T09:53:32.899Z,46.10
2023-02-17T09:56:10.784Z,44.70
2023-02-17T09:58:47.966Z,40.60
2023-02-17T10:01:22.786Z,34.80
2023-02-17T10:03:58.845Z,38.40
2023-02-17T10:06:35.181Z,31.00
2023-02-17T10:09:13.214Z,38.30
2023-02-17T10:11:49.836Z,37.00
2023-02-17T10:14:29.002Z,39.20
2023-02-17T10:17:08.265Z,36.50
2023-02-17T10:19:51.965Z,53.90
2023-02-17T10:22:25.539Z,86.90
2023-02-17T10:24:58.348Z,72.60
2023-02-17T10:27:43.305Z,70.30
2023-02-17T10:30:34.085Z,66.20
2023-02-17T10:33:22.290Z,38.50
2023-02-17T10:35:59.309Z,32.00
2023-02-17T10:38:42.457Z,37.40
2023-02-17T10:41:18.892Z,37.50
2023-02-17T10:43:51.879Z,37.70
2023-02-17T10:46:29.876Z,31.40
2023-02-17T10:49:02.874Z,40.40
2023-02-17T10:51:35.299Z,34.80
2023-02-17T10:54:17.885Z,30.20
2023-02-17T10:56:53.483Z,30.40
2023-02-17T10:59:29.875Z,33.90
2023-02-17T11:02:15.595Z,34.40
2023-02-17T11:04:49.427Z,35.00
2023-02-17T11:07:28.244Z,31.40
2023-02-17T11:10:04.637Z,41.60
2023-02-17T11:12:42.666Z,32.70
2023-02-17T11:15:19.827Z,28.80
2023-02-17T11:17:52.588Z,31.50
2023-02-17T11:20:37.157Z,45.60
2023-02-17T11:23:24.704Z,35.70
2023-02-17T11:26:19.421Z,28.50
2023-02-17T11:28:51.999Z,27.40
2023-02-17T11:31:29.272Z,30.20
2023-02-17T11:34:11.824Z,30.60
2023-02-17T11:36:47.261Z,29.30
2023-02-17T11:39:24.149Z,30.60
2023-02-17T11:41:57.781Z,31.50
2023-02-17T11:44:31.051Z,31.10
2023-02-17T11:47:11.281Z,34.90
2023-02-17T11:50:11.919Z,34.70
2023-02-17T11:53:01.242Z,35.10
2023-02-17T11:55:44.206Z,35.40
2023-02-17T11:58:30.222Z,34.20
2023-02-17T12:01:15.421Z,30.60
2023-02-17T12:04:09.610Z,32.20
2023-02-17T12:06:53.164Z,42.10
2023-02-17T12:09:30.917Z,41.40
2023-02-17T12:12:13.321Z,47.40
2023-02-17T12:15:08.636Z,38.00
2023-02-17T12:17:52.909Z,41.40
2023-02-17T12:20:38.516Z,48.60
2023-02-17T12:23:25.891Z,62.60
2023-02-17T12:26:04.767Z,38.20
2023-02-17T12:29:00.289Z,38.60
2023-02-17T12:31:50.571Z,43.30
2023-02-17T12:34:27.047Z,38.00
2023-02-17T12:37:00.544Z,38.90
2023-02-17T12:39:39.781Z,44.90
2023-02-17T12:42:17.868Z,54.10
2023-02-17T12:44:55.214Z,46.90
2023-02-17T12:47:32.443Z,37.10
2023-02-17T12:50:16.614Z,38.90
2023-02-17T12:52:53.568Z,34.40
2023-02-17T12:55:31.780Z,31.50
2023-02-17T12:58:08.026Z,29.80
2023-02-17T13:00:44.929Z,44.70
2023-02-17T13:03:17.404Z,35.40
2023-02-17T13:06:00.017Z,33.70
2023-02-17T13:08:38.607Z,33.30
2023-02-17T13:11:15.408Z,38.00
2023-02-17T13:13:47.654Z,38.20
2023-02-17T13:16:20.215Z,37.10
2023-02-17T13:18:53.706Z,32.70
2023-02-17T13:21:34.812Z,33.50
2023-02-17T13:24:14.058Z,51.90
2023-02-17T13:26:46.752Z,45.60
2023-02-17T13:29:36.747Z,48.80
2023-02-17T13:32:13.468Z,39.40
2023-02-17T13:34:47.062Z,53.20
2023-02-17T13:37:28.279Z,45.10
2023-02-17T13:40:01.536Z,60.70
2023-02-17T13:42:39.928Z,29.00
2023-02-17T13:45:22.309Z,29.00
2023-02-17T13:47:56.456Z,27.70
2023-02-17T13:50:43.838Z,33.70
2023-02-17T13:53:29.470Z,43.20
2023-02-17T13:56:03.946Z,47.20
2023-02-17T13:58:37.783Z,37.30
2023-02-17T14:01:16.731Z,37.40
2023-02-17T14:03:51.878Z,32.10
2023-02-17T14:06:29.496Z,36.30
2023-02-17T14:09:02.047Z,26.00
2023-02-17T14:11:34.500Z,29.60
2023-02-17T14:14:09.017Z,27.90
2023-02-17T14:16:44.210Z,29.70
2023-02-17T14:19:18.223Z,33.60
2023-02-17T14:22:01.987Z,36.60
2023-02-17T14:24:36.101Z,29.50
2023-02-17T14:27:09.964Z,27.80
2023-02-17T14:29:44.636Z,27.80
2023-02-17T14:32:35.037Z,22.80
2023-02-17T14:35:24.603Z,25.50
2023-02-17T14:37:57.231Z,19.30
2023-02-17T14:40:29.553Z,20.00
2023-02-17T14:43:01.762Z,20.70
2023-02-17T14:45:33.996Z,21.00
2023-02-17T14:48:06.935Z,29.00
2023-02-17T14:50:42.611Z,15.80
2023-02-17T14:53:20.335Z,23.20
2023-02-17T14:55:57.502Z,25.70
2023-02-17T14:58:31.383Z,22.00
2023-02-17T15:01:03.931Z,20.10
2023-02-17T15:03:36.072Z,25.00
2023-02-17T15:06:12.921Z,23.70
2023-02-17T15:08:49.347Z,22.20
2023-02-17T15:11:29.043Z,22.80
2023-02-17T15:14:02.978Z,21.00
2023-02-17T15:16:35.629Z,26.40
2023-02-17T15:19:07.823Z,25.90
2023-02-17T15:21:44.229Z,19.10
2023-02-17T15:24:19.143Z,17.90
2023-02-17T15:29:24.636Z,24.00
2023-02-17T15:31:58.926Z,21.80
2023-02-17T15:34:33.978Z,30.80
2023-02-17T15:37:06.189Z,36.00
2023-02-17T15:39:38.349Z,43.00
2023-02-17T15:42:15.316Z,28.80
2023-02-17T15:44:50.017Z,39.10
2023-02-17T15:47:22.839Z,32.70
2023-02-17T15:49:55.071Z,32.00
2023-02-17T15:52:27.333Z,26.80
2023-02-17T15:55:00.462Z,19.80
2023-02-17T15:57:32.737Z,21.80
2023-02-17T16:00:06.278Z,16.30
2023-02-17T16:02:38.922Z,19.30
2023-02-17T16:05:13.216Z,20.40
2023-02-17T16:07:45.826Z,19.60
2023-02-17T16:10:21.313Z,29.20
2023-02-17T16:12:56.578Z,29.30
2023-02-17T16:15:29.695Z,32.40
2023-02-17T16:18:01.895Z,22.60
2023-02-17T16:20:35.509Z,16.60
2023-02-17T16:23:07.641Z,15.70
2023-02-17T16:25:39.886Z,65.10
2023-02-17T16:28:15.690Z,38.50
2023-02-17T16:30:49.591Z,41.00
2023-02-17T16:33:21.945Z,20.40
2023-02-17T16:35:54.237Z,26.60
2023-02-17T16:38:26.881Z,26.50
2023-02-17T16:40:59.062Z,21.80
2023-02-17T16:43:31.331Z,42.10
2023-02-17T16:46:06.355Z,29.40
2023-02-17T16:48:43.404Z,33.80
2023-02-17T16:51:15.646Z,24.50
2023-02-17T16:53:47.823Z,46.10
2023-02-17T16:56:24.287Z,15.30
2023-02-17T16:58:56.474Z,20.90
2023-02-17T17:01:28.744Z,29.30
2023-02-17T17:04:00.951Z,23.40
2023-02-17T17:06:33.182Z,21.50
2023-02-17T17:09:06.399Z,34.90
2023-02-17T17:11:38.641Z,29.50
2023-02-17T17:14:10.842Z,23.20
2023-02-17T17:16:48.216Z,22.30
2023-02-17T17:19:20.603Z,14.60
2023-02-17T17:21:53.009Z,27.50
2023-02-17T17:24:25.485Z,38.10
2023-02-17T17:26:57.824Z,21.00
2023-02-17T17:29:30.280Z,19.60
2023-02-17T17:32:02.527Z,19.90
2023-02-17T17:34:34.762Z,17.80
2023-02-17T17:37:07.367Z,17.20
2023-02-17T17:39:40.176Z,42.20
2023-02-17T17:42:13.779Z,52.90
2023-02-17T17:44:45.984Z,26.80
2023-02-17T17:47:29.342Z,27.80
2023-02-17T17:50:02.702Z,33.60
2023-02-17T17:52:35.076Z,35.80
2023-02-17T17:55:09.778Z,48.20
2023-02-17T18:00:19.316Z,51.70
2023-02-17T18:02:51.529Z,35.60
2023-02-17T18:05:23.904Z,60.90
2023-02-17T18:07:56.559Z,21.10
2023-02-17T18:10:28.929Z,31.40
2023-02-17T18:13:01.636Z,34.90
2023-02-17T18:15:34.018Z,24.70
2023-02-17T18:18:06.834Z,27.00
2023-02-17T18:20:39.005Z,27.10
2023-02-17T18:23:11.206Z,25.00
2023-02-17T18:25:43.734Z,27.90
2023-02-17T18:28:15.979Z,17.50
2023-02-17T18:30:48.388Z,17.90
2023-02-17T18:33:20.674Z,18.70
2023-02-17T18:35:52.861Z,19.70
2023-02-17T18:38:25.312Z,22.30
2023-02-17T18:40:57.540Z,29.50
2023-02-17T18:43:29.994Z,28.20
2023-02-17T18:46:02.442Z,41.10
2023-02-17T18:48:34.754Z,22.90
2023-02-17T18:51:10.361Z,25.10
2023-02-17T18:53:43.490Z,25.80
2023-02-17T18:56:20.071Z,21.30
2023-02-17T18:58:55.325Z,23.60
2023-02-17T19:01:30.167Z,31.00
2023-02-17T19:04:04.962Z,24.30
2023-02-17T19:06:37.308Z,14.90
2023-02-17T19:09:09.578Z,19.50
2023-02-17T19:11:41.874Z,19.20
2023-02-17T19:14:14.124Z,16.40
2023-02-17T19:16:46.398Z,15.20
2023-02-17T19:19:18.781Z,17.50
2023-02-17T19:21:50.930Z,65.50
2023-02-17T19:24:23.177Z,79.10
2023-02-17T19:26:55.675Z,75.40
2023-02-17T19:29:27.971Z,36.30
2023-02-17T19:32:01.376Z,42.10
2023-02-17T19:34:33.792Z,94.30
2023-02-17T19:37:06.397Z,99.00
2023-02-17T19:39:38.705Z,51.70
2023-02-17T19:42:10.919Z,81.10
2023-02-17T19:44:43.163Z,41.90
2023-02-17T19:47:15.500Z,48.30
2023-02-17T19:49:47.953Z,26.60
2023-02-17T19:52:21.147Z,36.20
2023-02-17T19:54:53.353Z,19.10
2023-02-17T19:57:25.514Z,34.50
2023-02-17T19:59:57.838Z,23.50
2023-02-17T20:02:30.194Z,17.10
2023-02-17T20:05:02.614Z,16.10
2023-02-17T20:07:34.789Z,12.50
2023-02-17T20:10:10.878Z,7.30
2023-02-17T20:12:43.086Z,4.60
2023-02-17T20:15:15.298Z,3.20
2023-02-17T20:17:47.555Z,4.10
2023-02-17T20:20:19.970Z,7.90
2023-02-17T20:22:52.677Z,10.50
2023-02-17T20:25:24.847Z,22.90
2023-02-17T20:27:56.968Z,220.20
2023-02-17T20:30:29.239Z,116.10
2023-02-17T20:33:01.660Z,143.50
2023-02-17T20:35:35.515Z,69.60
2023-02-17T20:38:09.244Z,73.90
2023-02-17T20:40:41.385Z,109.60
2023-02-17T20:43:13.735Z,113.20
2023-02-17T20:45:46.595Z,51.50
2023-02-17T20:48:19.304Z,56.10
2023-02-17T20:50:51.598Z,21.90
2023-02-17T20:53:23.821Z,20.40
2023-02-17T20:55:56.042Z,15.70
2023-02-17T20:58:28.202Z,23.80
2023-02-17T21:01:00.325Z,10.20
2023-02-17T21:03:35.702Z,7.50
2023-02-17T21:06:20.414Z,13.90
2023-02-17T21:08:55.968Z,7.20
2023-02-17T21:11:28.377Z,21.70
2023-02-17T21:14:00.705Z,30.00
2023-02-17T21:16:34.082Z,15.90
2023-02-17T21:19:06.702Z,17.60
2023-02-17T21:21:39.257Z,27.60
2023-02-17T21:24:12.147Z,16.30
2023-02-17T21:26:44.713Z,34.00
2023-02-17T21:29:17.163Z,46.20
2023-02-17T21:31:49.539Z,76.70
2023-02-17T21:34:21.906Z,20.70
2023-02-17T21:36:54.162Z,20.80
2023-02-17T21:39:26.354Z,30.60
2023-02-17T21:41:58.643Z,15.20
2023-02-17T21:44:48.656Z,54.90
2023-02-17T21:47:21.871Z,42.10
2023-02-17T21:49:56.113Z,53.90
2023-02-17T21:52:28.412Z,46.00
2023-02-17T21:55:01.186Z,36.30
2023-02-17T21:57:33.409Z,37.20
2023-02-17T22:00:08.964Z,31.10
2023-02-17T22:02:44.444Z,40.80
2023-02-17T22:05:17.225Z,41.60
2023-02-17T22:07:52.398Z,19.40
2023-02-17T22:10:24.771Z,21.50
2023-02-17T22:12:57.072Z,39.50
2023-02-17T22:15:29.390Z,71.80
2023-02-17T22:18:02.148Z,19.20
2023-02-17T22:20:35.858Z,7.80
2023-02-17T22:23:08.095Z,4.20
2023-02-17T22:25:44.258Z,2.90
2023-02-17T22:28:16.886Z,3.30
2023-02-17T22:30:54.328Z,18.50
2023-02-17T22:33:26.581Z,8.20
2023-02-17T22:36:04.300Z,4.90
2023-02-17T22:38:37.212Z,4.00
2023-02-17T22:41:12.370Z,4.30
2023-02-17T22:43:46.082Z,2.40
2023-02-17T22:46:20.048Z,3.60
2023-02-17T22:48:53.719Z,6.00
2023-02-17T22:51:28.345Z,4.00
2023-02-17T22:54:01.187Z,3.40
2023-02-17T22:56:33.753Z,3.80
2023-02-17T22:59:06.409Z,2.90
2023-02-17T23:01:39.601Z,4.40
2023-02-17T23:13:20.126Z,2.80
2023-02-17T23:15:53.322Z,2.40
2023-02-17T23:18:25.642Z,1.70
2023-02-17T23:20:57.864Z,2.50
2023-02-17T23:23:30.435Z,4.30
2023-02-17T23:26:03.095Z,2.30
2023-02-17T23:28:35.615Z,2.40
2023-02-17T23:31:12.200Z,2.80
2023-02-17T23:33:46.692Z,3.70
2023-02-17T23:36:19.552Z,3.50
2023-02-17T23:38:52.976Z,2.90
2023-02-17T23:41:25.835Z,2.40
2023-02-17T23:43:58.136Z,3.20
2023-02-17T23:46:30.851Z,6.80
2023-02-17T23:49:03.149Z,2.70
2023-02-17T23:51:35.514Z,2.10
2023-02-17T23:54:07.828Z,2.50
2023-02-17T23:56:40.917Z,3.30
2023-02-17T23:59:13.453Z,3.10
